Huvudsida
METAR-TAF:

METAR-TAF

Flygplatser :

Lakselv, Norge

Lakselvs flygplats. Banak

latitud: 70-04N, longitud: 024-59E, höjd: 0 m

Aktuellt väderrapport

Denna rapport gjordes för 28 minuter sedan, klockan 10:20 UTC
Vind 15 kt från syd/sydost
Temperatur -9°C
Fuktighet 67%
Tryck 1003 hPa
Sikt 10 km eller mer
Få moln på en höjd av 1400 ft
Spridda moln på en höjd av 2400 ft

METAR: ENNA 171020Z 16015KT 9999 FEW014 SCT024 M09/M14 Q1003 RMK WIND 1800FT 20028G42KT

Tid: 11:48 (10:48 UTC)

Väderprognos

Prognos gäller från 17 kl. 06 UTC till 18 kl. 06 UTC
Vind 25 kt från syd i byarna ända upp till 35 kt
Sikt 10 km eller mer
Få moln på en höjd av 1500 ft
Spridda moln på en höjd av 3000 ft
Blir
från 17 kl. 15 UTC till 17 kl. 18 UTC
Vind 15 kt från syd i byarna ända upp till 25 kt

TAF: ENNA 1706/1806 18025G35KT 9999 FEW015 SCT030 BECMG 1715/1718 18015G25KT

Aktuella väderrapporter och prognoser från 4000 flygplatser (METAR- och TAF-rapporter).

De tillgängliga stationerna syns som gula och röda prickar på kartan.

För musen över prickarna för att se namnen på stationerna.

Klicka sedan för att få väderrapporter och prognoser.

För att ändra kartan: Klicka på de gröna knapparna med ett svart kors på för att zooma in; den gröna knappen med ett streck på för att zooma ut; eller på de gröna pilarna för angränsande kartor.


METAR-TAF: